Time;durP1;ratioP1;P1;durP2;ratioP2;P2;SDS_P1;SDS_P2;PMS_P1;PMS_P2;Temp;Humidity;BMP_temperature;BMP_pressure;BME280_temperature;BME280_humidity;BME280_pressure;Samples;Min_cycle;Max_cycle;Signal;HPM_P1;HPM_P2
2022/03/16 00:01:25;;;;;;;66.90;41.08;;;;;;;;;;5032352;28;20067;-83
2022/03/16 00:03:52;;;;;;;73.78;42.90;;;;;;;;;;5031197;28;20125;-84
2022/03/16 00:06:18;;;;;;;67.68;40.60;;;;;;;;;;5033899;28;20056;-83
2022/03/16 00:08:47;;;;;;;76.35;43.28;;;;;;;;;;5034758;28;20037;-84
2022/03/16 00:11:13;;;;;;;69.15;39.15;;;;;;;;;;5033916;28;20091;-83
2022/03/16 00:13:39;;;;;;;75.18;42.10;;;;;;;;;;5034900;28;20399;-83
2022/03/16 00:16:05;;;;;;;71.78;41.88;;;;;;;;;;5033714;28;20042;-83
2022/03/16 00:18:31;;;;;;;70.88;42.05;;;;;;;;;;5034181;28;20060;-83
2022/03/16 00:20:59;;;;;;;77.40;44.00;;;;;;;;;;5029588;28;20033;-83
2022/03/16 00:23:26;;;;;;;83.80;45.55;;;;;;;;;;5032147;28;20496;-83
2022/03/16 00:25:52;;;;;;;78.95;43.35;;;;;;;;;;5029168;28;20053;-83
2022/03/16 00:28:20;;;;;;;73.90;43.47;;;;;;;;;;5032237;28;20185;-84
2022/03/16 00:30:46;;;;;;;88.10;44.85;;;;;;;;;;5018665;28;20087;-83
2022/03/16 00:33:12;;;;;;;73.60;43.28;;;;;;;;;;5034313;28;20120;-83
2022/03/16 00:35:38;;;;;;;76.30;43.63;;;;;;;;;;5029237;28;20041;-83
2022/03/16 00:38:05;;;;;;;80.85;44.70;;;;;;;;;;5031492;28;20507;-83
2022/03/16 00:40:34;;;;;;;84.72;44.70;;;;;;;;;;5027272;28;20055;-83
2022/03/16 00:43:00;;;;;;;76.57;42.55;;;;;;;;;;5031749;28;20049;-84
2022/03/16 00:45:26;;;;;;;81.25;45.83;;;;;;;;;;5033702;28;20444;-83
2022/03/16 00:47:52;;;;;;;85.30;44.80;;;;;;;;;;5032739;28;20127;-83
2022/03/16 00:50:18;;;;;;;84.43;45.67;;;;;;;;;;5031030;28;20598;-83
2022/03/16 00:52:44;;;;;;;91.63;44.22;;;;;;;;;;5028336;28;20072;-83
2022/03/16 00:55:10;;;;;;;85.68;44.28;;;;;;;;;;5032490;28;20096;-83
2022/03/16 00:57:36;;;;;;;87.60;44.05;;;;;;;;;;5023650;28;20508;-83
2022/03/16 01:00:04;;;;;;;95.18;45.47;;;;;;;;;;5028802;28;20051;-83
2022/03/16 01:02:30;;;;;;;88.55;44.97;;;;;;;;;;5032873;28;20116;-83
2022/03/16 01:04:56;;;;;;;94.75;45.05;;;;;;;;;;5024074;28;20116;-83
2022/03/16 01:07:22;;;;;;;91.07;43.72;;;;;;;;;;5027877;28;20124;-83
2022/03/16 01:09:48;;;;;;;95.22;42.78;;;;;;;;;;5032223;28;20124;-83
2022/03/16 01:12:14;;;;;;;89.40;42.67;;;;;;;;;;5027159;28;20041;-83
2022/03/16 01:14:40;;;;;;;80.38;40.92;;;;;;;;;;5029159;28;20061;-83
2022/03/16 01:17:06;;;;;;;103.72;45.83;;;;;;;;;;5033053;28;20049;-83
2022/03/16 01:19:34;;;;;;;91.85;44.08;;;;;;;;;;5035222;28;20418;-83
2022/03/16 01:22:01;;;;;;;92.45;45.00;;;;;;;;;;5039142;28;20049;-83
2022/03/16 01:24:27;;;;;;;98.65;45.95;;;;;;;;;;5038151;28;20049;-83
2022/03/16 01:26:53;;;;;;;88.93;43.75;;;;;;;;;;5031660;28;20514;-83
2022/03/16 01:29:19;;;;;;;83.13;43.20;;;;;;;;;;5030789;28;20120;-83
2022/03/16 01:31:48;;;;;;;85.55;44.03;;;;;;;;;;5031000;28;20076;-84
2022/03/16 01:34:14;;;;;;;82.90;42.92;;;;;;;;;;5030020;28;20503;-84
2022/03/16 01:36:40;;;;;;;79.50;41.25;;;;;;;;;;5028187;28;20042;-83
2022/03/16 01:39:08;;;;;;;78.97;41.20;;;;;;;;;;5032434;28;20400;-85
2022/03/16 01:41:35;;;;;;;79.25;41.22;;;;;;;;;;5030701;28;20045;-83
2022/03/16 01:44:02;;;;;;;72.50;39.65;;;;;;;;;;5030165;28;20064;-83
2022/03/16 01:46:28;;;;;;;63.70;37.08;;;;;;;;;;5010596;28;20052;-83
2022/03/16 01:48:54;;;;;;;69.43;38.45;;;;;;;;;;5028688;28;20139;-83
2022/03/16 01:51:21;;;;;;;67.45;38.92;;;;;;;;;;5023730;28;20084;-84
2022/03/16 01:53:47;;;;;;;73.60;39.25;;;;;;;;;;5025116;28;20049;-84
2022/03/16 01:56:15;;;;;;;83.30;41.85;;;;;;;;;;5030742;28;20040;-84
2022/03/16 01:58:41;;;;;;;77.97;40.05;;;;;;;;;;5030734;28;20049;-84
2022/03/16 02:01:07;;;;;;;77.15;40.65;;;;;;;;;;5030735;28;20048;-84
2022/03/16 02:03:32;;;;;;;80.15;41.95;;;;;;;;;;5030286;28;20045;-84
2022/03/16 02:06:00;;;;;;;86.55;43.25;;;;;;;;;;5028395;28;20492;-84
2022/03/16 02:08:28;;;;;;;72.05;39.67;;;;;;;;;;5031607;28;20045;-84
2022/03/16 02:10:54;;;;;;;76.18;39.35;;;;;;;;;;5031413;28;20511;-84
2022/03/16 02:13:20;;;;;;;70.00;38.00;;;;;;;;;;5027804;28;20075;-84
2022/03/16 02:15:46;;;;;;;74.32;39.28;;;;;;;;;;5030963;28;20041;-84
2022/03/16 02:18:13;;;;;;;73.28;39.38;;;;;;;;;;5029848;28;20045;-84
2022/03/16 02:20:39;;;;;;;66.97;37.65;;;;;;;;;;5025789;28;20467;-84
2022/03/16 02:23:06;;;;;;;69.28;38.45;;;;;;;;;;5027827;28;20068;-83
2022/03/16 02:25:33;;;;;;;65.50;36.35;;;;;;;;;;5023296;28;20057;-84
2022/03/16 02:27:59;;;;;;;82.82;38.45;;;;;;;;;;5021487;28;20048;-83
2022/03/16 02:30:27;;;;;;;79.43;39.20;;;;;;;;;;5029997;28;20092;-84
2022/03/16 02:32:53;;;;;;;77.40;38.53;;;;;;;;;;5027477;28;20042;-84
2022/03/16 02:35:19;;;;;;;248.27;42.83;;;;;;;;;;5029016;28;20040;-84
2022/03/16 02:37:45;;;;;;;423.15;42.80;;;;;;;;;;5028911;28;20045;-84
2022/03/16 02:40:12;;;;;;;561.17;49.58;;;;;;;;;;5021042;28;20042;-84
2022/03/16 02:42:38;;;;;;;389.80;40.95;;;;;;;;;;5027541;28;20042;-84
2022/03/16 02:45:05;;;;;;;375.35;39.17;;;;;;;;;;5031230;28;20057;-84
2022/03/16 02:47:31;;;;;;;260.02;32.03;;;;;;;;;;5027349;28;20496;-85
2022/03/16 02:49:58;;;;;;;274.05;32.30;;;;;;;;;;5031018;28;20054;-84
2022/03/16 02:52:24;;;;;;;150.55;30.38;;;;;;;;;;5031021;28;20480;-83
2022/03/16 02:54:50;;;;;;;187.07;32.08;;;;;;;;;;5027130;28;20128;-83
2022/03/16 02:57:16;;;;;;;323.17;32.72;;;;;;;;;;5014385;28;20041;-83
2022/03/16 02:59:43;;;;;;;413.05;37.60;;;;;;;;;;5031169;28;20496;-83
2022/03/16 03:02:09;;;;;;;191.48;34.67;;;;;;;;;;5022905;28;20147;-83
2022/03/16 03:04:35;;;;;;;339.08;35.85;;;;;;;;;;5027002;28;20563;-84
2022/03/16 03:07:01;;;;;;;200.05;33.88;;;;;;;;;;5030575;28;20100;-84
2022/03/16 03:09:27;;;;;;;347.83;35.75;;;;;;;;;;5028871;28;20505;-83
2022/03/16 03:11:53;;;;;;;431.77;37.70;;;;;;;;;;5029817;28;20071;-84
2022/03/16 03:14:20;;;;;;;230.05;32.78;;;;;;;;;;5035169;28;20038;-83
2022/03/16 03:16:49;;;;;;;265.25;31.15;;;;;;;;;;5038035;28;20451;-83
2022/03/16 03:19:15;;;;;;;282.10;30.85;;;;;;;;;;5035716;28;20042;-83
2022/03/16 03:21:41;;;;;;;359.98;35.20;;;;;;;;;;5027853;28;20121;-83
2022/03/16 03:24:09;;;;;;;575.22;39.60;;;;;;;;;;5021061;28;20049;-83
2022/03/16 03:26:35;;;;;;;386.48;34.53;;;;;;;;;;5033526;28;20064;-83
2022/03/16 03:29:01;;;;;;;470.60;35.13;;;;;;;;;;5029747;28;20045;-84
2022/03/16 03:31:27;;;;;;;324.25;34.80;;;;;;;;;;5021246;28;20129;-84
2022/03/16 03:33:53;;;;;;;268.48;37.80;;;;;;;;;;5030677;28;20120;-84
2022/03/16 03:36:19;;;;;;;166.40;35.33;;;;;;;;;;5030420;28;20034;-84
2022/03/16 03:38:45;;;;;;;538.90;42.00;;;;;;;;;;5018041;28;20501;-84
2022/03/16 03:41:11;;;;;;;337.50;38.55;;;;;;;;;;5033258;28;20041;-84
2022/03/16 03:43:37;;;;;;;146.07;32.30;;;;;;;;;;5031824;28;20057;-84
2022/03/16 03:46:05;;;;;;;114.25;33.22;;;;;;;;;;5034544;28;20053;-83
2022/03/16 03:48:31;;;;;;;231.73;34.22;;;;;;;;;;5034405;28;20054;-83
2022/03/16 03:50:57;;;;;;;215.85;31.33;;;;;;;;;;5031895;28;20042;-82
2022/03/16 03:53:23;;;;;;;277.10;31.42;;;;;;;;;;5034410;28;20044;-83
2022/03/16 03:55:49;;;;;;;470.08;36.75;;;;;;;;;;5030482;28;20037;-83
2022/03/16 03:58:15;;;;;;;487.90;34.10;;;;;;;;;;5034353;28;20076;-84
2022/03/16 04:00:41;;;;;;;582.70;36.45;;;;;;;;;;5033228;28;20054;-84
2022/03/16 04:03:07;;;;;;;350.77;30.65;;;;;;;;;;5027554;28;20045;-84
2022/03/16 04:05:33;;;;;;;473.75;33.13;;;;;;;;;;5030329;28;20091;-84
2022/03/16 04:07:59;;;;;;;496.20;35.40;;;;;;;;;;5033927;28;20128;-84
2022/03/16 04:10:25;;;;;;;380.42;33.80;;;;;;;;;;5015484;28;20103;-83
2022/03/16 04:12:51;;;;;;;349.35;33.72;;;;;;;;;;5034793;28;20046;-84
2022/03/16 04:15:21;;;;;;;381.00;35.17;;;;;;;;;;5030828;28;20408;-83
2022/03/16 04:17:47;;;;;;;512.85;41.75;;;;;;;;;;5030926;28;20072;-83
2022/03/16 04:20:14;;;;;;;152.98;33.90;;;;;;;;;;5034063;28;20072;-83
2022/03/16 04:22:40;;;;;;;449.88;36.85;;;;;;;;;;5034009;28;20037;-83
2022/03/16 04:25:09;;;;;;;468.27;41.92;;;;;;;;;;5028995;28;20041;-83
2022/03/16 04:27:35;;;;;;;341.05;38.28;;;;;;;;;;5023534;28;20083;-83
2022/03/16 04:30:01;;;;;;;272.42;36.35;;;;;;;;;;5030438;28;20061;-83
2022/03/16 04:32:27;;;;;;;414.55;39.92;;;;;;;;;;5029404;28;20037;-83
2022/03/16 04:34:53;;;;;;;485.23;36.30;;;;;;;;;;5028424;28;20044;-83
2022/03/16 04:37:19;;;;;;;367.67;35.38;;;;;;;;;;5031291;28;20546;-83
2022/03/16 04:39:45;;;;;;;635.53;41.95;;;;;;;;;;5029920;28;20076;-83
2022/03/16 04:42:11;;;;;;;493.90;39.55;;;;;;;;;;5031250;28;20037;-83
2022/03/16 04:44:37;;;;;;;237.90;35.08;;;;;;;;;;5029672;28;20125;-84
2022/03/16 04:47:03;;;;;;;305.38;34.50;;;;;;;;;;5021504;28;20045;-83
2022/03/16 04:49:29;;;;;;;179.35;34.42;;;;;;;;;;5020301;28;20516;-83
2022/03/16 04:51:55;;;;;;;509.98;39.20;;;;;;;;;;5027844;28;20041;-83
2022/03/16 04:54:21;;;;;;;708.70;42.60;;;;;;;;;;5028786;28;20531;-83
2022/03/16 04:56:47;;;;;;;631.50;43.58;;;;;;;;;;5032252;28;20187;-84
2022/03/16 04:59:13;;;;;;;169.23;34.90;;;;;;;;;;5032567;28;20044;-84
2022/03/16 05:01:39;;;;;;;154.73;32.78;;;;;;;;;;5031489;28;20046;-84
2022/03/16 05:04:05;;;;;;;303.48;41.97;;;;;;;;;;5031981;28;20038;-84
2022/03/16 05:06:31;;;;;;;417.83;43.85;;;;;;;;;;5031617;28;20478;-83
2022/03/16 05:08:57;;;;;;;295.17;39.63;;;;;;;;;;5032851;28;20041;-84
2022/03/16 05:11:23;;;;;;;301.15;41.97;;;;;;;;;;5027191;28;20054;-84
2022/03/16 05:13:50;;;;;;;175.70;37.03;;;;;;;;;;5032664;28;20382;-84
2022/03/16 05:16:17;;;;;;;198.55;37.38;;;;;;;;;;5031930;28;20049;-84
2022/03/16 05:18:45;;;;;;;325.65;37.80;;;;;;;;;;5032667;28;20049;-84
2022/03/16 05:21:12;;;;;;;289.55;38.08;;;;;;;;;;5024633;28;20037;-84
2022/03/16 05:23:38;;;;;;;580.80;47.10;;;;;;;;;;5032404;28;20041;-84
2022/03/16 05:26:04;;;;;;;412.08;44.90;;;;;;;;;;5031715;28;20598;-84
2022/03/16 05:28:31;;;;;;;522.03;50.53;;;;;;;;;;5028134;28;20045;-84
2022/03/16 05:30:57;;;;;;;235.10;41.80;;;;;;;;;;5029922;28;20484;-84
2022/03/16 05:33:23;;;;;;;131.60;39.95;;;;;;;;;;5032193;28;20045;-84
2022/03/16 05:35:49;;;;;;;104.35;41.55;;;;;;;;;;5032733;28;20045;-84
2022/03/16 05:38:15;;;;;;;155.60;41.35;;;;;;;;;;5031342;28;20056;-84
2022/03/16 05:40:42;;;;;;;191.68;40.10;;;;;;;;;;5030523;28;20037;-83
2022/03/16 05:43:09;;;;;;;187.50;40.55;;;;;;;;;;5030908;28;20049;-84
2022/03/16 05:45:35;;;;;;;134.48;38.92;;;;;;;;;;5026108;28;20119;-84
2022/03/16 05:48:01;;;;;;;392.33;47.45;;;;;;;;;;5031717;28;20045;-84
2022/03/16 05:50:28;;;;;;;190.63;41.78;;;;;;;;;;5032526;28;20048;-84
2022/03/16 05:53:01;;;;;;;83.65;38.90;;;;;;;;;;5031075;28;20049;-84
2022/03/16 05:55:27;;;;;;;232.15;41.45;;;;;;;;;;5032921;28;20133;-84
2022/03/16 05:57:54;;;;;;;99.70;38.35;;;;;;;;;;5032971;28;20176;-85
2022/03/16 06:00:20;;;;;;;132.45;40.72;;;;;;;;;;5032460;28;20171;-85
2022/03/16 06:02:47;;;;;;;112.68;40.35;;;;;;;;;;5031813;28;20096;-84
2022/03/16 06:05:14;;;;;;;152.43;38.60;;;;;;;;;;5032300;28;20124;-84
2022/03/16 06:07:40;;;;;;;368.63;40.10;;;;;;;;;;5032482;28;20381;-83
2022/03/16 06:10:07;;;;;;;259.70;38.55;;;;;;;;;;5025384;28;20056;-82
2022/03/16 06:12:33;;;;;;;331.88;41.45;;;;;;;;;;5031738;28;20046;-82
2022/03/16 06:14:59;;;;;;;297.15;40.17;;;;;;;;;;5030487;28;20099;-84
2022/03/16 06:17:25;;;;;;;413.70;40.80;;;;;;;;;;5029898;28;20038;-84
2022/03/16 06:19:51;;;;;;;357.40;40.35;;;;;;;;;;5032672;28;20077;-84
2022/03/16 06:22:17;;;;;;;278.25;38.42;;;;;;;;;;5032807;28;20044;-84
2022/03/16 06:24:43;;;;;;;292.50;36.72;;;;;;;;;;5032808;28;20030;-82
2022/03/16 06:27:08;;;;;;;233.90;41.75;;;;;;;;;;5032839;28;20080;-84
2022/03/16 06:29:34;;;;;;;173.73;45.83;;;;;;;;;;5032613;28;20033;-82
2022/03/16 06:32:00;;;;;;;134.65;46.10;;;;;;;;;;5030443;28;20045;-83
2022/03/16 06:34:26;;;;;;;97.15;45.97;;;;;;;;;;5032848;28;20053;-83
2022/03/16 06:36:52;;;;;;;100.85;45.53;;;;;;;;;;5033144;28;20064;-83
2022/03/16 06:39:19;;;;;;;94.35;46.25;;;;;;;;;;5035301;28;20045;-83
2022/03/16 06:41:45;;;;;;;104.53;49.30;;;;;;;;;;5037261;28;20071;-83
2022/03/16 06:44:11;;;;;;;106.65;47.45;;;;;;;;;;5036256;28;20132;-83
2022/03/16 06:46:37;;;;;;;97.97;46.80;;;;;;;;;;5032886;28;20049;-83
2022/03/16 06:49:03;;;;;;;96.47;47.63;;;;;;;;;;5036252;28;20056;-83
2022/03/16 06:51:30;;;;;;;103.90;46.95;;;;;;;;;;5036904;28;20038;-83
2022/03/16 06:53:56;;;;;;;82.95;44.63;;;;;;;;;;5037581;28;20045;-83
2022/03/16 06:56:22;;;;;;;95.85;47.72;;;;;;;;;;5037300;28;20045;-83
2022/03/16 06:58:48;;;;;;;96.35;49.00;;;;;;;;;;5038038;28;20041;-84
2022/03/16 07:01:14;;;;;;;99.57;51.20;;;;;;;;;;5036332;28;20052;-83
2022/03/16 07:03:40;;;;;;;99.50;51.55;;;;;;;;;;5035336;28;20506;-83
2022/03/16 07:06:08;;;;;;;97.07;50.15;;;;;;;;;;5033470;28;20112;-82
2022/03/16 07:08:34;;;;;;;90.03;48.03;;;;;;;;;;5036060;28;20046;-83
2022/03/16 07:11:01;;;;;;;89.25;47.85;;;;;;;;;;5034505;28;20048;-83
2022/03/16 07:13:27;;;;;;;82.03;46.58;;;;;;;;;;5035267;28;20123;-84
2022/03/16 07:15:53;;;;;;;78.90;45.97;;;;;;;;;;5034956;28;20033;-83
2022/03/16 07:18:20;;;;;;;76.57;45.15;;;;;;;;;;5032257;28;20044;-83
2022/03/16 07:20:47;;;;;;;69.43;43.38;;;;;;;;;;5035775;28;20132;-83
2022/03/16 07:23:14;;;;;;;74.57;45.03;;;;;;;;;;5035520;28;20418;-83
2022/03/16 07:25:50;;;;;;;74.72;45.75;;;;;;;;;;5035240;28;20053;-83
2022/03/16 07:28:17;;;;;;;78.72;45.80;;;;;;;;;;5034920;28;20551;-83
2022/03/16 07:30:44;;;;;;;76.95;44.63;;;;;;;;;;5037272;28;20049;-83
2022/03/16 07:33:10;;;;;;;79.15;46.88;;;;;;;;;;5037535;28;20045;-83
2022/03/16 07:35:37;;;;;;;75.63;46.35;;;;;;;;;;5035637;28;20057;-83
2022/03/16 07:38:03;;;;;;;84.43;48.50;;;;;;;;;;5037541;28;20056;-83
2022/03/16 07:40:31;;;;;;;83.07;49.20;;;;;;;;;;5039119;28;20038;-83
2022/03/16 07:42:57;;;;;;;83.22;50.35;;;;;;;;;;5041373;28;20093;-83
2022/03/16 07:45:24;;;;;;;83.82;47.78;;;;;;;;;;5038635;28;20052;-83
2022/03/16 07:47:52;;;;;;;72.97;49.08;;;;;;;;;;5040689;28;20041;-83
2022/03/16 07:50:19;;;;;;;78.88;47.15;;;;;;;;;;5049903;28;20049;-83
2022/03/16 07:52:45;;;;;;;73.93;46.75;;;;;;;;;;5054782;28;20037;-83
2022/03/16 07:55:13;;;;;;;71.95;46.67;;;;;;;;;;5049982;28;20503;-83
2022/03/16 07:57:39;;;;;;;63.20;43.28;;;;;;;;;;5046898;28;20109;-84
2022/03/16 08:00:06;;;;;;;56.40;40.00;;;;;;;;;;5054903;28;20049;-83
2022/03/16 08:02:32;;;;;;;52.22;38.63;;;;;;;;;;5060087;28;20029;-82
2022/03/16 08:05:00;;;;;;;49.35;37.72;;;;;;;;;;5060303;28;20017;-83
2022/03/16 08:07:26;;;;;;;45.40;35.90;;;;;;;;;;5056185;28;20049;-83
2022/03/16 08:09:52;;;;;;;44.53;34.30;;;;;;;;;;5055011;28;20045;-83
2022/03/16 08:12:18;;;;;;;39.60;32.13;;;;;;;;;;5051708;28;20102;-83
2022/03/16 08:14:44;;;;;;;42.92;32.33;;;;;;;;;;5053300;28;20045;-83
2022/03/16 08:17:10;;;;;;;40.65;31.35;;;;;;;;;;5045211;28;20049;-83
2022/03/16 08:19:36;;;;;;;41.28;32.15;;;;;;;;;;5050330;28;20061;-83
2022/03/16 08:22:02;;;;;;;39.85;30.38;;;;;;;;;;5049809;28;20052;-82
2022/03/16 08:24:28;;;;;;;43.13;31.83;;;;;;;;;;5050604;28;20056;-83
2022/03/16 08:26:54;;;;;;;37.65;30.08;;;;;;;;;;5041514;28;20128;-82
2022/03/16 08:29:20;;;;;;;43.33;32.30;;;;;;;;;;5046693;28;20025;-82
2022/03/16 08:31:46;;;;;;;37.50;31.17;;;;;;;;;;5044498;28;20030;-82
2022/03/16 08:34:12;;;;;;;41.10;30.23;;;;;;;;;;5045235;28;20496;-83
2022/03/16 08:36:39;;;;;;;36.38;30.52;;;;;;;;;;5042837;28;20183;-83
2022/03/16 08:39:05;;;;;;;36.47;27.98;;;;;;;;;;5041432;28;20129;-83
2022/03/16 08:41:35;;;;;;;37.10;29.05;;;;;;;;;;5055079;28;20033;-83
2022/03/16 08:44:05;;;;;;;38.28;29.08;;;;;;;;;;5043694;28;20077;-82
2022/03/16 08:46:31;;;;;;;36.40;28.98;;;;;;;;;;5041309;28;20041;-82
2022/03/16 08:48:57;;;;;;;35.42;26.17;;;;;;;;;;5038869;28;20499;-82
2022/03/16 08:51:23;;;;;;;38.85;30.08;;;;;;;;;;5036779;28;20057;-82
2022/03/16 08:53:49;;;;;;;37.03;29.27;;;;;;;;;;5035811;28;20045;-83
2022/03/16 08:56:16;;;;;;;37.60;28.23;;;;;;;;;;5038031;28;20407;-83
2022/03/16 08:58:42;;;;;;;38.35;29.67;;;;;;;;;;5039263;28;20041;-82
2022/03/16 09:01:08;;;;;;;37.40;28.70;;;;;;;;;;5037425;28;20041;-82
2022/03/16 09:03:34;;;;;;;38.58;28.58;;;;;;;;;;5036709;28;20081;-83
2022/03/16 09:06:01;;;;;;;36.03;28.50;;;;;;;;;;5035933;28;20567;-82
2022/03/16 09:08:27;;;;;;;33.55;26.98;;;;;;;;;;5036092;28;20069;-82
2022/03/16 09:10:53;;;;;;;35.13;25.95;;;;;;;;;;5036109;28;20045;-82
2022/03/16 09:13:22;;;;;;;30.73;23.45;;;;;;;;;;5037962;28;20065;-83
2022/03/16 09:15:51;;;;;;;32.88;25.88;;;;;;;;;;5035073;28;20495;-83
2022/03/16 09:18:18;;;;;;;31.90;23.48;;;;;;;;;;5035221;28;20566;-84
2022/03/16 09:20:44;;;;;;;30.10;23.73;;;;;;;;;;5034455;28;20077;-82
2022/03/16 09:23:10;;;;;;;30.35;25.05;;;;;;;;;;5034848;28;20052;-83
2022/03/16 09:25:36;;;;;;;28.70;22.40;;;;;;;;;;5033246;28;20041;-82
2022/03/16 09:28:02;;;;;;;26.77;22.10;;;;;;;;;;5035804;28;20074;-82
2022/03/16 09:30:28;;;;;;;31.30;22.35;;;;;;;;;;5035424;28;20056;-82
2022/03/16 09:32:57;;;;;;;28.23;22.27;;;;;;;;;;5034657;28;20048;-83
2022/03/16 09:35:24;;;;;;;29.90;21.33;;;;;;;;;;5035199;28;20120;-83
2022/03/16 09:37:51;;;;;;;24.02;19.63;;;;;;;;;;5036944;28;20041;-83
2022/03/16 09:40:17;;;;;;;26.38;18.35;;;;;;;;;;5036055;28;20037;-83
2022/03/16 09:42:44;;;;;;;21.10;16.05;;;;;;;;;;5037031;28;20045;-82
2022/03/16 09:45:19;;;;;;;24.63;18.73;;;;;;;;;;5036924;28;20493;-82
2022/03/16 09:47:45;;;;;;;23.10;17.05;;;;;;;;;;5034797;28;20116;-83
2022/03/16 09:50:11;;;;;;;19.60;14.13;;;;;;;;;;5034751;28;20060;-82
2022/03/16 09:52:38;;;;;;;20.40;15.38;;;;;;;;;;5036166;28;20042;-83
2022/03/16 09:55:06;;;;;;;19.08;15.55;;;;;;;;;;5035229;28;20072;-81
2022/03/16 09:57:35;;;;;;;18.77;13.77;;;;;;;;;;5035674;28;20056;-82
2022/03/16 10:00:01;;;;;;;20.00;13.55;;;;;;;;;;5035438;28;20496;-82
2022/03/16 10:02:28;;;;;;;20.85;14.13;;;;;;;;;;5035604;28;20049;-82
2022/03/16 10:04:54;;;;;;;19.40;13.60;;;;;;;;;;5032690;28;20499;-82
2022/03/16 10:07:28;;;;;;;19.55;13.38;;;;;;;;;;5037781;28;20065;-82
2022/03/16 10:15:24;;;;;;;23.95;15.35;;;;;;;;;;5031227;28;20049;-82
2022/03/16 10:17:59;;;;;;;22.95;15.65;;;;;;;;;;5020280;28;20047;-83
2022/03/16 10:20:26;;;;;;;19.85;14.82;;;;;;;;;;5035367;28;20041;-83
2022/03/16 10:23:06;;;;;;;21.20;15.82;;;;;;;;;;5040220;28;20044;-83
2022/03/16 10:25:37;;;;;;;25.33;16.33;;;;;;;;;;5045428;28;20048;-83
2022/03/16 10:28:10;;;;;;;22.40;15.32;;;;;;;;;;5045746;28;20045;-83
2022/03/16 10:30:36;;;;;;;24.58;16.40;;;;;;;;;;5046394;28;20117;-82
2022/03/16 10:33:02;;;;;;;21.25;15.48;;;;;;;;;;5038206;28;20515;-82
2022/03/16 10:35:28;;;;;;;24.35;15.15;;;;;;;;;;5037651;28;20053;-82
2022/03/16 10:38:06;;;;;;;21.70;15.25;;;;;;;;;;5036418;28;20119;-82
2022/03/16 10:40:32;;;;;;;21.35;15.98;;;;;;;;;;5036431;28;20562;-83
2022/03/16 10:48:28;;;;;;;22.33;16.25;;;;;;;;;;5041510;28;20045;-83
2022/03/16 10:50:57;;;;;;;22.20;16.25;;;;;;;;;;5038903;28;20103;-82
2022/03/16 10:53:30;;;;;;;23.55;17.75;;;;;;;;;;5019694;28;20050;-82
2022/03/16 10:55:57;;;;;;;23.83;17.00;;;;;;;;;;5031166;28;20463;-82
2022/03/16 10:58:24;;;;;;;22.23;17.35;;;;;;;;;;5037261;28;20041;-82
2022/03/16 11:00:52;;;;;;;21.27;15.43;;;;;;;;;;5039243;28;20071;-81
2022/03/16 11:03:22;;;;;;;22.05;15.43;;;;;;;;;;5040638;28;20558;-82
2022/03/16 11:05:48;;;;;;;22.05;16.83;;;;;;;;;;5040611;28;20060;-83
2022/03/16 11:08:14;;;;;;;22.38;15.68;;;;;;;;;;5041401;28;20049;-83
2022/03/16 11:10:41;;;;;;;21.63;15.82;;;;;;;;;;5045928;28;20125;-83
2022/03/16 11:15:53;;;;;;;23.15;16.17;;;;;;;;;;5046787;28;20085;-83
2022/03/16 11:18:20;;;;;;;21.35;15.63;;;;;;;;;;5039263;28;20044;-82
2022/03/16 11:20:47;;;;;;;23.67;15.95;;;;;;;;;;5039821;28;20097;-82
2022/03/16 11:26:03;;;;;;;18.90;14.75;;;;;;;;;;5045616;28;20109;-82
2022/03/16 11:28:50;;;;;;;20.88;14.68;;;;;;;;;;5045819;28;20053;-82
2022/03/16 11:31:16;;;;;;;23.52;16.08;;;;;;;;;;5035191;28;20044;-82
2022/03/16 11:33:50;;;;;;;20.55;15.38;;;;;;;;;;5022645;28;20065;-82
2022/03/16 11:36:37;;;;;;;25.13;16.42;;;;;;;;;;5042859;28;20060;-82
2022/03/16 11:39:04;;;;;;;20.60;15.27;;;;;;;;;;5037620;28;20408;-82
2022/03/16 11:41:32;;;;;;;24.10;16.10;;;;;;;;;;5036225;28;20442;-82
2022/03/16 11:44:17;;;;;;;20.63;14.70;;;;;;;;;;5041829;28;20458;-82
2022/03/16 11:46:46;;;;;;;22.25;15.63;;;;;;;;;;5038049;28;20431;-82
2022/03/16 11:49:12;;;;;;;20.63;15.68;;;;;;;;;;5032693;28;20052;-81
2022/03/16 11:51:43;;;;;;;22.90;15.75;;;;;;;;;;5034684;28;20042;-80
2022/03/16 11:54:10;;;;;;;23.67;15.73;;;;;;;;;;5043414;28;20378;-83
2022/03/16 11:56:42;;;;;;;21.35;15.80;;;;;;;;;;5042808;28;20089;-82
2022/03/16 11:59:14;;;;;;;20.85;15.90;;;;;;;;;;5035980;28;20103;-81
2022/03/16 12:01:45;;;;;;;20.15;14.75;;;;;;;;;;5038599;28;20511;-82
2022/03/16 12:04:15;;;;;;;24.10;15.82;;;;;;;;;;5040702;28;20045;-83
2022/03/16 12:06:53;;;;;;;22.90;15.63;;;;;;;;;;5037839;28;20046;-82
2022/03/16 12:09:20;;;;;;;22.67;15.85;;;;;;;;;;5039917;28;20412;-82
2022/03/16 12:14:56;;;;;;;21.95;15.52;;;;;;;;;;5036512;28;20485;-83
2022/03/16 12:17:22;;;;;;;21.98;14.57;;;;;;;;;;5047705;28;20053;-82
2022/03/16 12:20:10;;;;;;;22.98;15.05;;;;;;;;;;5051554;28;20044;-82
2022/03/16 12:22:42;;;;;;;21.83;14.82;;;;;;;;;;5059476;28;20085;-82
2022/03/16 12:25:26;;;;;;;23.23;15.95;;;;;;;;;;5064689;28;20037;-82
2022/03/16 12:30:45;;;;;;;22.00;15.68;;;;;;;;;;5050701;28;20097;-82
2022/03/16 12:33:22;;;;;;;21.83;15.50;;;;;;;;;;5056660;28;20110;-82
2022/03/16 12:35:59;;;;;;;23.48;14.98;;;;;;;;;;5058875;28;20048;-81
2022/03/16 12:38:35;;;;;;;20.85;15.20;;;;;;;;;;5056776;28;20099;-82
2022/03/16 12:43:49;;;;;;;23.50;15.15;;;;;;;;;;5048552;28;20061;-83
2022/03/16 12:46:34;;;;;;;21.48;15.63;;;;;;;;;;5048191;28;20048;-83
2022/03/16 12:49:04;;;;;;;23.55;15.90;;;;;;;;;;5048852;28;20650;-82
2022/03/16 12:51:34;;;;;;;24.15;15.63;;;;;;;;;;5052403;28;20052;-82
2022/03/16 12:54:00;;;;;;;23.13;16.08;;;;;;;;;;5041805;28;20120;-83
2022/03/16 12:56:26;;;;;;;21.38;15.93;;;;;;;;;;5040523;28;20080;-85
2022/03/16 12:58:52;;;;;;;24.10;16.20;;;;;;;;;;5037868;28;20447;-84
2022/03/16 13:01:19;;;;;;;23.77;16.92;;;;;;;;;;5038107;28;20045;-84
2022/03/16 13:03:45;;;;;;;21.73;16.95;;;;;;;;;;5045789;28;20036;-84
2022/03/16 13:06:18;;;;;;;24.23;16.65;;;;;;;;;;5047601;28;20046;-84
2022/03/16 13:08:52;;;;;;;22.38;16.13;;;;;;;;;;5030709;28;20057;-83
2022/03/16 13:11:25;;;;;;;20.80;15.65;;;;;;;;;;5043509;28;20495;-85
2022/03/16 13:14:02;;;;;;;22.90;16.33;;;;;;;;;;5048523;28;20072;-83
2022/03/16 13:16:35;;;;;;;24.25;16.70;;;;;;;;;;5054335;28;20049;-83
2022/03/16 13:19:02;;;;;;;23.25;16.90;;;;;;;;;;5049550;28;20053;-84
2022/03/16 13:21:28;;;;;;;24.98;16.33;;;;;;;;;;5048669;28;20041;-83
2022/03/16 13:24:08;;;;;;;24.45;16.50;;;;;;;;;;5045222;28;20041;-83
2022/03/16 13:26:34;;;;;;;24.90;16.38;;;;;;;;;;5044591;28;20515;-84
2022/03/16 13:29:02;;;;;;;22.20;15.90;;;;;;;;;;5052766;28;20041;-85
2022/03/16 13:31:29;;;;;;;22.95;16.90;;;;;;;;;;5047874;28;20057;-84
2022/03/16 13:34:01;;;;;;;23.02;16.83;;;;;;;;;;5041320;28;20037;-86
2022/03/16 13:36:32;;;;;;;18.30;14.77;;;;;;;;;;5043494;28;20049;-84
2022/03/16 13:38:59;;;;;;;21.75;16.45;;;;;;;;;;5040818;28;20038;-83
2022/03/16 13:41:25;;;;;;;22.42;16.13;;;;;;;;;;5042802;28;20041;-83
2022/03/16 13:44:04;;;;;;;21.73;15.70;;;;;;;;;;5040481;28;20138;-84
2022/03/16 13:46:38;;;;;;;24.45;16.75;;;;;;;;;;5023091;28;20045;-84
2022/03/16 13:49:10;;;;;;;22.88;16.70;;;;;;;;;;5037012;28;20038;-84
2022/03/16 13:51:36;;;;;;;22.88;16.02;;;;;;;;;;5001847;28;20060;-84
2022/03/16 13:54:05;;;;;;;21.20;15.82;;;;;;;;;;5044472;28;20500;-84
2022/03/16 13:56:36;;;;;;;25.60;16.25;;;;;;;;;;5039153;28;20118;-82
2022/03/16 13:59:09;;;;;;;23.20;16.15;;;;;;;;;;5033985;28;20550;-82
2022/03/16 14:01:37;;;;;;;22.23;17.17;;;;;;;;;;5033861;28;20080;-82
2022/03/16 14:04:08;;;;;;;23.00;17.25;;;;;;;;;;5043634;28;20571;-85
2022/03/16 14:06:41;;;;;;;23.50;17.15;;;;;;;;;;5039051;28;20057;-85
2022/03/16 14:09:26;;;;;;;24.13;18.08;;;;;;;;;;5041069;28;20071;-85
2022/03/16 14:11:54;;;;;;;23.33;17.90;;;;;;;;;;5038827;28;20053;-85
2022/03/16 14:14:20;;;;;;;20.27;16.98;;;;;;;;;;5042849;28;20041;-85
2022/03/16 14:16:47;;;;;;;24.67;18.48;;;;;;;;;;5040740;28;20123;-85
2022/03/16 14:19:26;;;;;;;22.13;17.42;;;;;;;;;;5020010;28;20038;-85
2022/03/16 14:21:52;;;;;;;24.13;18.17;;;;;;;;;;5040792;28;20045;-85
2022/03/16 14:24:18;;;;;;;23.20;18.35;;;;;;;;;;5048908;28;20060;-84
2022/03/16 14:26:44;;;;;;;24.48;18.65;;;;;;;;;;5044055;28;20041;-86
2022/03/16 14:29:10;;;;;;;26.35;19.13;;;;;;;;;;5048682;28;20519;-85
2022/03/16 14:31:37;;;;;;;25.20;18.73;;;;;;;;;;5049490;28;20041;-86
2022/03/16 14:34:05;;;;;;;22.70;18.60;;;;;;;;;;5046735;28;20087;-84
2022/03/16 14:36:32;;;;;;;27.27;19.10;;;;;;;;;;5027384;28;20041;-85
2022/03/16 14:38:58;;;;;;;24.58;18.92;;;;;;;;;;5043727;28;20511;-84
2022/03/16 14:41:24;;;;;;;24.67;18.15;;;;;;;;;;5044569;28;20099;-84